createdAt,value
2023-05-23T00:02:08.904Z,100012.28
2023-05-23T00:04:58.804Z,99992.00
2023-05-23T00:07:46.449Z,99975.22
2023-05-23T00:10:34.174Z,99987.66
2023-05-23T00:13:21.917Z,100015.13
2023-05-23T00:16:10.703Z,100022.22
2023-05-23T00:18:59.641Z,100012.25
2023-05-23T00:21:49.024Z,100011.84
2023-05-23T00:24:36.777Z,100003.50
2023-05-23T00:27:24.548Z,100010.56
2023-05-23T00:30:12.545Z,100007.28
2023-05-23T00:33:00.762Z,100019.63
2023-05-23T00:35:49.441Z,99996.06
2023-05-23T00:38:37.433Z,100002.38
2023-05-23T00:41:27.187Z,100023.38
2023-05-23T00:44:14.988Z,100013.03
2023-05-23T00:47:03.141Z,100018.25
2023-05-23T00:49:50.994Z,99990.31
2023-05-23T00:52:39.709Z,100026.97
2023-05-23T00:55:28.811Z,99984.75
2023-05-23T00:58:17.986Z,100018.16
2023-05-23T01:01:06.178Z,100003.72
2023-05-23T01:03:54.018Z,100023.97
2023-05-23T01:06:41.903Z,100006.44
2023-05-23T01:12:51.399Z,100017.56
2023-05-23T01:16:13.384Z,100025.94
2023-05-23T01:19:06.755Z,100014.38
2023-05-23T01:21:56.175Z,100007.53
2023-05-23T01:25:06.682Z,100004.00
2023-05-23T01:28:06.510Z,100010.78
2023-05-23T01:30:58.683Z,100017.91
2023-05-23T01:33:47.582Z,100015.53
2023-05-23T01:36:38.073Z,99997.13
2023-05-23T01:39:25.812Z,99990.78
2023-05-23T01:42:14.064Z,100011.09
2023-05-23T01:45:01.977Z,100018.66
2023-05-23T01:47:52.988Z,99987.66
2023-05-23T01:50:42.234Z,99985.56
2023-05-23T01:53:32.853Z,100009.50
2023-05-23T01:56:24.897Z,99992.06
2023-05-23T01:59:12.880Z,99970.09
2023-05-23T02:02:00.954Z,99991.50
2023-05-23T02:04:50.164Z,99967.53
2023-05-23T02:07:39.212Z,99998.31
2023-05-23T02:10:27.171Z,100001.16
2023-05-23T02:13:14.955Z,100022.63
2023-05-23T02:16:02.839Z,99974.47
2023-05-23T02:18:53.106Z,100019.13
2023-05-23T02:21:41.386Z,100006.41
2023-05-23T02:24:29.078Z,100026.38
2023-05-23T02:27:16.818Z,99978.19
2023-05-23T02:30:04.939Z,99975.81
2023-05-23T02:32:53.485Z,100025.16
2023-05-23T02:35:41.564Z,99962.09
2023-05-23T02:38:31.241Z,100022.28
2023-05-23T02:41:19.099Z,99989.81
2023-05-23T02:44:06.992Z,100033.91
2023-05-23T02:46:54.868Z,100025.88
2023-05-23T02:49:42.694Z,100011.97
2023-05-23T02:52:30.477Z,100027.13
2023-05-23T02:55:18.354Z,100030.72
2023-05-23T02:58:09.323Z,100029.50
2023-05-23T03:00:57.432Z,100029.53
2023-05-23T03:03:45.387Z,100032.72
2023-05-23T03:06:34.415Z,100020.06
2023-05-23T03:09:22.120Z,100023.97
2023-05-23T03:12:12.668Z,100029.22
2023-05-23T03:15:00.653Z,100024.13
2023-05-23T03:17:48.738Z,100016.19
2023-05-23T03:20:41.260Z,100016.72
2023-05-23T03:23:29.050Z,99997.47
2023-05-23T03:26:16.963Z,100010.59
2023-05-23T03:29:04.840Z,100015.81
2023-05-23T03:31:52.497Z,100011.50
2023-05-23T03:34:40.163Z,100025.44
2023-05-23T03:37:27.928Z,100027.47
2023-05-23T03:40:15.844Z,100020.69
2023-05-23T03:43:05.865Z,100022.00
2023-05-23T03:45:55.719Z,100030.84
2023-05-23T03:48:43.657Z,100015.28
2023-05-23T03:51:31.963Z,100027.66
2023-05-23T03:54:20.754Z,100017.22
2023-05-23T03:57:08.630Z,100025.72
2023-05-23T03:59:58.595Z,100034.44
2023-05-23T04:02:48.680Z,100029.78
2023-05-23T04:05:39.701Z,100013.00
2023-05-23T04:08:29.717Z,100031.00
2023-05-23T04:11:18.350Z,100032.97
2023-05-23T04:14:06.810Z,100027.47
2023-05-23T04:16:54.623Z,100031.03
2023-05-23T04:19:46.799Z,100035.03
2023-05-23T04:22:34.740Z,100048.16
2023-05-23T04:25:24.653Z,100024.38
2023-05-23T04:28:24.404Z,100044.66
2023-05-23T04:31:15.791Z,100034.34
2023-05-23T04:34:04.203Z,100019.19
2023-05-23T04:36:57.758Z,100042.72
2023-05-23T04:39:46.730Z,100055.50
2023-05-23T04:43:14.647Z,100039.25
2023-05-23T04:46:10.497Z,100022.47
2023-05-23T04:49:02.940Z,100060.34
2023-05-23T04:51:51.368Z,100067.91
2023-05-23T04:54:45.197Z,100064.72
2023-05-23T04:57:33.405Z,100063.91
2023-05-23T05:00:22.798Z,100040.84
2023-05-23T05:03:12.281Z,100035.66
2023-05-23T05:06:06.554Z,100016.53
2023-05-23T05:08:56.376Z,100047.16
2023-05-23T05:11:46.928Z,100003.34
2023-05-23T05:14:38.399Z,100037.09
2023-05-23T05:17:26.440Z,100050.94
2023-05-23T05:20:29.755Z,100015.78
2023-05-23T05:23:17.652Z,100015.22
2023-05-23T05:26:05.694Z,100012.03
2023-05-23T05:28:53.720Z,100034.25
2023-05-23T05:31:43.765Z,100045.97
2023-05-23T05:34:38.280Z,100032.97
2023-05-23T05:37:27.518Z,100048.16
2023-05-23T05:40:19.925Z,100055.88
2023-05-23T05:43:07.589Z,100049.25
2023-05-23T05:45:55.824Z,100013.06
2023-05-23T05:48:46.239Z,100019.59
2023-05-23T05:51:36.849Z,100024.69
2023-05-23T05:54:33.964Z,100052.75
2023-05-23T05:57:21.925Z,100020.78
2023-05-23T06:00:13.973Z,100033.94
2023-05-23T06:03:09.220Z,100050.44
2023-05-23T06:06:13.364Z,100040.25
2023-05-23T06:09:01.853Z,100028.47
2023-05-23T06:11:53.467Z,100041.34
2023-05-23T06:14:41.817Z,100011.44
2023-05-23T06:17:30.038Z,100035.06
2023-05-23T06:20:20.963Z,100039.94
2023-05-23T06:23:12.100Z,100038.38
2023-05-23T06:26:04.306Z,99994.22
2023-05-23T06:28:52.077Z,100024.78
2023-05-23T06:31:58.296Z,100040.06
2023-05-23T06:34:46.150Z,100037.44
2023-05-23T06:37:34.735Z,100037.59
2023-05-23T06:40:25.512Z,100034.28
2023-05-23T06:43:20.780Z,100010.91
2023-05-23T06:46:28.728Z,99971.72
2023-05-23T06:49:19.529Z,100016.84
2023-05-23T06:52:07.956Z,100043.50
2023-05-23T06:54:55.945Z,100027.41
2023-05-23T06:57:45.333Z,100013.00
2023-05-23T07:00:36.912Z,100012.28
2023-05-23T07:03:47.993Z,99998.56
2023-05-23T07:06:43.431Z,100027.97
2023-05-23T07:09:31.666Z,100023.38
2023-05-23T07:12:34.778Z,99971.59
2023-05-23T07:15:23.299Z,99995.41
2023-05-23T07:18:21.111Z,100018.53
2023-05-23T07:21:09.188Z,100014.72
2023-05-23T07:24:00.646Z,100005.25
2023-05-23T07:26:58.410Z,100018.47
2023-05-23T07:29:47.380Z,100015.28
2023-05-23T07:32:41.579Z,100015.25
2023-05-23T07:35:33.813Z,100015.84
2023-05-23T07:38:24.017Z,99972.66
2023-05-23T07:41:22.655Z,99947.84
2023-05-23T07:44:10.481Z,100005.03
2023-05-23T07:47:07.976Z,99984.84
2023-05-23T07:49:58.765Z,100008.69
2023-05-23T07:52:48.437Z,99969.44
2023-05-23T07:55:39.354Z,100000.84
2023-05-23T07:58:27.782Z,100002.56
2023-05-23T08:01:18.805Z,99965.56
2023-05-23T08:04:21.879Z,99993.00
2023-05-23T08:10:28.669Z,99962.34
2023-05-23T08:14:06.169Z,99930.56
2023-05-23T08:17:15.432Z,99961.09
2023-05-23T08:20:24.753Z,99942.13
2023-05-23T08:23:13.059Z,99962.97
2023-05-23T08:26:09.209Z,99996.47
2023-05-23T08:29:01.847Z,99921.66
2023-05-23T08:31:56.683Z,99986.38
2023-05-23T08:34:45.482Z,99960.03
2023-05-23T08:37:38.324Z,99910.78
2023-05-23T08:40:31.582Z,99936.28
2023-05-23T08:43:45.273Z,99953.59
2023-05-23T08:46:50.264Z,99939.31
2023-05-23T08:50:13.332Z,99961.63
2023-05-23T08:53:22.929Z,99925.56
2023-05-23T08:56:37.737Z,99962.22
2023-05-23T08:59:27.348Z,99971.75
2023-05-23T09:02:16.679Z,99980.06
2023-05-23T09:05:07.767Z,99961.53
2023-05-23T09:07:57.042Z,99971.13
2023-05-23T09:10:48.353Z,99980.34
2023-05-23T09:13:36.107Z,99950.38
2023-05-23T09:16:35.253Z,99957.34
2023-05-23T09:19:28.505Z,99954.09
2023-05-23T09:22:43.427Z,99959.84
2023-05-23T09:25:49.028Z,99953.06
2023-05-23T09:28:39.512Z,99945.09
2023-05-23T09:31:29.360Z,99961.66
2023-05-23T09:34:18.033Z,99958.59
2023-05-23T09:37:06.335Z,99963.91
2023-05-23T09:39:56.475Z,99961.56
2023-05-23T09:42:46.318Z,99936.81
2023-05-23T09:45:34.564Z,99962.91
2023-05-23T09:48:30.367Z,99945.44
2023-05-23T09:51:24.065Z,99953.88
2023-05-23T09:54:15.240Z,99958.28
2023-05-23T09:57:11.838Z,99939.25
2023-05-23T10:00:01.497Z,99949.06
2023-05-23T10:02:58.245Z,99953.81
2023-05-23T10:05:57.410Z,99912.53
2023-05-23T10:08:50.963Z,99932.66
2023-05-23T10:12:17.250Z,99949.47
2023-05-23T10:15:07.182Z,99946.19
2023-05-23T10:18:20.441Z,99939.91
2023-05-23T10:21:13.034Z,99952.66
2023-05-23T10:24:01.601Z,99947.38
2023-05-23T10:26:49.658Z,99938.91
2023-05-23T10:29:38.448Z,99909.38
2023-05-23T10:32:30.364Z,99920.84
2023-05-23T10:35:47.291Z,99931.88
2023-05-23T10:38:58.965Z,99914.00
2023-05-23T10:41:56.137Z,99896.44
2023-05-23T10:44:44.009Z,99934.53
2023-05-23T10:47:31.730Z,99903.50
2023-05-23T10:50:34.197Z,99928.72
2023-05-23T10:53:23.698Z,99915.66
2023-05-23T10:56:23.912Z,99917.75
2023-05-23T10:59:21.686Z,99922.88
2023-05-23T11:02:17.376Z,99896.41
2023-05-23T11:05:25.201Z,99892.06
2023-05-23T11:08:14.721Z,99911.97
2023-05-23T11:11:03.894Z,99902.56
2023-05-23T11:14:00.673Z,99910.75
2023-05-23T11:16:49.398Z,99887.25
2023-05-23T11:19:37.540Z,99883.75
2023-05-23T11:22:30.559Z,99901.69
2023-05-23T11:25:20.557Z,99903.41
2023-05-23T11:28:08.524Z,99904.09
2023-05-23T11:30:58.109Z,99889.00
2023-05-23T11:33:46.249Z,99891.50
2023-05-23T11:36:35.283Z,99886.47
2023-05-23T11:39:23.785Z,99894.66
2023-05-23T11:42:11.830Z,99876.97
2023-05-23T11:44:59.746Z,99843.09
2023-05-23T11:47:47.611Z,99833.38
2023-05-23T11:50:47.665Z,99873.66
2023-05-23T11:53:44.571Z,99885.75
2023-05-23T11:56:32.550Z,99853.19
2023-05-23T11:59:21.670Z,99866.53
2023-05-23T12:02:09.395Z,99861.38
2023-05-23T12:04:57.322Z,99791.53
2023-05-23T12:07:47.708Z,99856.72
2023-05-23T12:10:51.738Z,99860.69
2023-05-23T12:13:42.503Z,99848.72
2023-05-23T12:16:30.260Z,99829.91
2023-05-23T12:19:18.449Z,99832.84
2023-05-23T12:22:13.265Z,99841.00
2023-05-23T12:25:01.176Z,99844.19
2023-05-23T12:27:49.396Z,99845.44
2023-05-23T12:30:44.518Z,99840.44
2023-05-23T12:33:32.314Z,99844.88
2023-05-23T12:36:25.407Z,99826.22
2023-05-23T12:39:13.609Z,99815.00
2023-05-23T12:42:09.783Z,99834.50
2023-05-23T12:44:58.533Z,99791.19
2023-05-23T12:47:46.281Z,99802.53
2023-05-23T12:50:34.074Z,99801.28
2023-05-23T12:53:24.983Z,99782.84
2023-05-23T12:56:13.201Z,99808.13
2023-05-23T12:59:02.243Z,99802.28
2023-05-23T13:01:50.128Z,99781.03
2023-05-23T13:04:40.280Z,99763.56
2023-05-23T13:07:28.244Z,99767.50
2023-05-23T13:10:15.914Z,99715.66
2023-05-23T13:13:04.488Z,99784.63
2023-05-23T13:15:52.389Z,99726.34
2023-05-23T13:18:40.344Z,99749.06
2023-05-23T13:21:28.469Z,99768.22
2023-05-23T13:24:16.313Z,99775.78
2023-05-23T13:27:05.731Z,99754.63
2023-05-23T13:29:53.534Z,99772.78
2023-05-23T13:32:41.279Z,99734.97
2023-05-23T13:35:32.056Z,99746.19
2023-05-23T13:38:20.875Z,99747.56
2023-05-23T13:41:08.679Z,99766.44
2023-05-23T13:43:56.821Z,99749.53
2023-05-23T13:46:44.919Z,99758.13
2023-05-23T13:49:32.746Z,99742.38
2023-05-23T13:52:20.547Z,99752.88
2023-05-23T13:55:08.564Z,99760.03
2023-05-23T13:57:56.332Z,99755.44
2023-05-23T14:00:46.477Z,99743.47
2023-05-23T14:03:34.266Z,99766.38
2023-05-23T14:06:22.205Z,99753.69
2023-05-23T14:09:10.085Z,99766.50
2023-05-23T14:11:58.625Z,99743.78
2023-05-23T14:14:46.418Z,99747.56
2023-05-23T14:17:34.098Z,99745.78
2023-05-23T14:20:22.994Z,99752.59
2023-05-23T14:23:11.073Z,99746.91
2023-05-23T14:25:58.963Z,99728.66
2023-05-23T14:28:46.816Z,99753.22
2023-05-23T14:31:34.547Z,99719.69
2023-05-23T14:34:22.258Z,99721.88
2023-05-23T14:37:10.210Z,99744.31
2023-05-23T14:39:58.133Z,99753.34
2023-05-23T14:42:46.177Z,99750.25
2023-05-23T14:45:34.227Z,99729.16
2023-05-23T14:48:22.592Z,99748.69
2023-05-23T14:51:11.296Z,99750.72
2023-05-23T14:54:00.878Z,99760.59
2023-05-23T14:56:51.138Z,99753.69
2023-05-23T14:59:40.697Z,99730.31
2023-05-23T15:02:28.448Z,99755.91
2023-05-23T15:05:17.553Z,99753.44
2023-05-23T15:08:05.550Z,99746.38
2023-05-23T15:10:53.469Z,99746.50
2023-05-23T15:13:41.308Z,99721.56
2023-05-23T15:16:33.186Z,99731.56
2023-05-23T15:19:21.169Z,99730.38
2023-05-23T15:22:13.358Z,99727.69
2023-05-23T15:25:08.037Z,99724.91
2023-05-23T15:27:56.628Z,99745.00
2023-05-23T15:30:44.522Z,99726.50
2023-05-23T15:33:32.684Z,99746.50
2023-05-23T15:36:20.430Z,99731.53
2023-05-23T15:39:08.259Z,99745.00
2023-05-23T15:41:55.932Z,99714.59
2023-05-23T15:44:43.893Z,99737.94
2023-05-23T15:47:31.714Z,99727.34
2023-05-23T15:50:20.407Z,99738.75
2023-05-23T15:53:08.062Z,99729.34
2023-05-23T15:55:55.824Z,99740.22
2023-05-23T15:58:43.856Z,99745.50
2023-05-23T16:01:36.890Z,99728.06
2023-05-23T16:04:24.684Z,99732.31
2023-05-23T16:07:12.586Z,99743.69
2023-05-23T16:10:00.430Z,99739.28
2023-05-23T16:12:48.551Z,99736.00
2023-05-23T16:15:36.294Z,99731.59
2023-05-23T16:18:24.404Z,99694.25
2023-05-23T16:21:12.269Z,99743.59
2023-05-23T16:24:00.103Z,99741.69
2023-05-23T16:26:47.890Z,99751.28
2023-05-23T16:29:35.776Z,99720.97
2023-05-23T16:32:23.512Z,99749.75
2023-05-23T16:35:14.046Z,99752.56
2023-05-23T16:38:04.520Z,99731.19
2023-05-23T16:40:52.366Z,99745.75
2023-05-23T16:43:40.129Z,99732.19
2023-05-23T16:46:27.865Z,99720.34
2023-05-23T16:49:15.553Z,99754.41
2023-05-23T16:52:03.682Z,99750.81
2023-05-23T16:54:51.460Z,99742.72
2023-05-23T16:57:39.293Z,99741.91
2023-05-23T17:00:27.208Z,99752.25
2023-05-23T17:03:15.098Z,99749.53
2023-05-23T17:06:02.817Z,99763.50
2023-05-23T17:08:52.836Z,99701.56
2023-05-23T17:11:40.451Z,99773.69
2023-05-23T17:14:28.248Z,99759.44
2023-05-23T17:17:16.285Z,99759.13
2023-05-23T17:20:04.261Z,99703.81
2023-05-23T17:22:55.218Z,99776.00
2023-05-23T17:25:43.367Z,99750.00
2023-05-23T17:28:31.367Z,99750.59
2023-05-23T17:31:21.804Z,99765.13
2023-05-23T17:34:12.252Z,99765.78
2023-05-23T17:37:00.149Z,99754.19
2023-05-23T17:39:48.804Z,99760.16
2023-05-23T17:42:37.322Z,99739.31
2023-05-23T17:45:25.103Z,99744.53
2023-05-23T17:48:12.898Z,99779.34
2023-05-23T17:51:00.761Z,99777.31
2023-05-23T17:53:51.876Z,99734.84
2023-05-23T17:56:39.593Z,99768.19
2023-05-23T17:59:28.310Z,99774.75
2023-05-23T18:02:16.088Z,99755.47
2023-05-23T18:05:05.098Z,99739.22
2023-05-23T18:07:53.640Z,99754.78
2023-05-23T18:10:50.274Z,99802.91
2023-05-23T18:13:38.405Z,99807.66
2023-05-23T18:16:26.096Z,99788.16
2023-05-23T18:19:14.002Z,99809.72
2023-05-23T18:22:01.892Z,99815.78
2023-05-23T18:24:49.594Z,99818.50
2023-05-23T18:27:37.965Z,99798.19
2023-05-23T18:30:26.744Z,99822.06
2023-05-23T18:33:14.607Z,99811.34
2023-05-23T18:36:02.437Z,99833.13
2023-05-23T18:38:50.211Z,99839.38
2023-05-23T18:41:38.080Z,99818.69
2023-05-23T18:44:26.101Z,99854.44
2023-05-23T18:47:13.849Z,99827.88
2023-05-23T18:50:01.680Z,99839.75
2023-05-23T18:52:49.380Z,99848.66
2023-05-23T18:55:37.783Z,99862.31
2023-05-23T18:58:25.895Z,99857.22
2023-05-23T19:01:13.728Z,99852.31
2023-05-23T19:04:01.957Z,99858.81
2023-05-23T19:06:51.672Z,99845.34
2023-05-23T19:09:39.510Z,99869.59
2023-05-23T19:12:27.192Z,99867.78
2023-05-23T19:15:15.297Z,99865.94
2023-05-23T19:18:03.128Z,99841.97
2023-05-23T19:20:54.830Z,99863.50
2023-05-23T19:23:45.244Z,99877.22
2023-05-23T19:26:33.162Z,99895.84
2023-05-23T19:29:21.789Z,99853.88
2023-05-23T19:32:09.527Z,99877.38
2023-05-23T19:34:57.212Z,99865.59
2023-05-23T19:37:45.372Z,99894.00
2023-05-23T19:40:33.179Z,99883.41
2023-05-23T19:43:21.282Z,99903.38
2023-05-23T19:46:09.196Z,99908.69
2023-05-23T19:48:59.909Z,99908.03
2023-05-23T19:51:48.156Z,99887.53
2023-05-23T19:54:35.831Z,99904.34
2023-05-23T19:57:23.907Z,99873.91
2023-05-23T20:00:14.931Z,99864.44
2023-05-23T20:03:03.823Z,99907.03
2023-05-23T20:05:51.737Z,99918.97
2023-05-23T20:08:39.704Z,99920.19
2023-05-23T20:11:29.306Z,99924.69
2023-05-23T20:14:17.337Z,99883.47
2023-05-23T20:17:05.410Z,99922.41
2023-05-23T20:19:53.135Z,99927.25
2023-05-23T20:22:41.132Z,99907.47
2023-05-23T20:25:28.992Z,99902.66
2023-05-23T20:28:16.900Z,99927.31
2023-05-23T20:31:04.684Z,99924.94
2023-05-23T20:33:52.737Z,99917.41
2023-05-23T20:36:40.466Z,99927.75
2023-05-23T20:39:28.189Z,99925.38
2023-05-23T20:42:16.023Z,99929.06
2023-05-23T20:45:07.245Z,99928.72
2023-05-23T20:47:55.722Z,99908.50
2023-05-23T20:50:44.340Z,99925.97
2023-05-23T20:53:32.643Z,99845.84
2023-05-23T20:56:20.409Z,99876.47
2023-05-23T20:59:08.509Z,99922.16
2023-05-23T21:01:57.415Z,99911.13
2023-05-23T21:04:45.223Z,99935.78
2023-05-23T21:07:32.985Z,99935.81
2023-05-23T21:10:20.959Z,99928.72
2023-05-23T21:13:08.671Z,99943.91
2023-05-23T21:15:56.445Z,99889.44
2023-05-23T21:18:44.174Z,99933.53
2023-05-23T21:21:32.016Z,99951.09
2023-05-23T21:24:19.829Z,99927.66
2023-05-23T21:27:08.201Z,99925.25
2023-05-23T21:29:56.545Z,99907.38
2023-05-23T21:32:45.046Z,99897.84
2023-05-23T21:35:39.150Z,99944.03
2023-05-23T21:38:27.911Z,99942.44
2023-05-23T21:41:15.569Z,99952.38
2023-05-23T21:44:03.430Z,99950.00
2023-05-23T21:46:51.334Z,99942.84
2023-05-23T21:49:40.653Z,99904.69
2023-05-23T21:52:28.423Z,99901.84
2023-05-23T21:55:16.332Z,99948.84
2023-05-23T21:58:04.029Z,99952.84
2023-05-23T22:00:51.720Z,99922.63
2023-05-23T22:03:39.546Z,99938.94
2023-05-23T22:06:27.541Z,99941.72
2023-05-23T22:09:15.560Z,99923.41
2023-05-23T22:12:03.423Z,99954.44
2023-05-23T22:14:51.116Z,99888.41
2023-05-23T22:17:43.520Z,99935.31
2023-05-23T22:20:34.312Z,99927.31
2023-05-23T22:23:22.085Z,99890.75
2023-05-23T22:26:09.976Z,99920.19
2023-05-23T22:28:57.849Z,99949.22
2023-05-23T22:31:47.062Z,99918.59
2023-05-23T22:34:34.810Z,99942.00
2023-05-23T22:37:22.524Z,99909.81
2023-05-23T22:40:10.630Z,99932.78
2023-05-23T22:42:58.428Z,99937.56
2023-05-23T22:45:46.342Z,99902.59
2023-05-23T22:48:34.373Z,99941.94
2023-05-23T22:51:22.509Z,99930.00
2023-05-23T22:54:10.192Z,99920.06
2023-05-23T22:56:57.900Z,99849.31
2023-05-23T22:59:45.593Z,99918.88
2023-05-23T23:02:34.790Z,99883.91
2023-05-23T23:05:23.203Z,99926.81
2023-05-23T23:08:11.125Z,99926.84
2023-05-23T23:10:58.812Z,99918.13
2023-05-23T23:13:46.787Z,99923.72
2023-05-23T23:16:34.915Z,99898.69
2023-05-23T23:19:22.953Z,99922.16
2023-05-23T23:22:11.085Z,99915.41
2023-05-23T23:24:59.130Z,99925.78
2023-05-23T23:27:46.938Z,99918.19
2023-05-23T23:30:34.776Z,99903.50
2023-05-23T23:33:21.895Z,99895.97
2023-05-23T23:36:09.791Z,99913.88
2023-05-23T23:38:57.420Z,99901.53
2023-05-23T23:41:45.270Z,99906.72
2023-05-23T23:44:33.102Z,99907.09
2023-05-23T23:47:20.890Z,99876.06
2023-05-23T23:50:09.020Z,99907.53
2023-05-23T23:52:59.609Z,99873.28
2023-05-23T23:55:48.805Z,99874.47
2023-05-23T23:58:36.749Z,99905.91
